Time;durP1;ratioP1;P1;durP2;ratioP2;P2;SDS_P1;SDS_P2;PMS_P1;PMS_P2;Temp;Humidity;BMP_temperature;BMP_pressure;BME280_temperature;BME280_humidity;BME280_pressure;Samples;Min_cycle;Max_cycle;Signal;HPM_P1;HPM_P2
2021/09/22 00:58:36;;;;;;;1.27;0.80;;;;;;;2.39;62.93;98990.13;4749826;29;20517;-62
2021/09/22 01:01:02;;;;;;;0.95;0.95;;;;;;;2.40;62.90;98991.81;4800363;29;20054;-63
2021/09/22 01:03:28;;;;;;;0.77;0.43;;;;;;;2.42;63.08;98997.91;4941220;28;20069;-63
2021/09/22 01:05:54;;;;;;;1.90;1.08;;;;;;;2.45;63.11;98997.53;5060993;28;20067;-62
2021/09/22 01:08:21;;;;;;;2.05;1.15;;;;;;;2.42;62.97;98987.06;5109505;28;20024;-62
2021/09/22 01:10:47;;;;;;;1.83;1.13;;;;;;;2.41;63.24;98998.06;5109363;28;20550;-62
2021/09/22 01:13:15;;;;;;;0.90;0.90;;;;;;;2.41;63.35;99001.63;5109478;28;20027;-63
2021/09/22 01:15:43;;;;;;;1.65;1.30;;;;;;;2.41;63.28;99000.78;5109526;28;20066;-62
2021/09/22 01:18:17;;;;;;;3.80;1.13;;;;;;;2.41;63.37;98998.91;5109365;28;20513;-63
2021/09/22 02:22:07;;;;;;;1.17;0.80;;;;;;;2.44;63.09;99025.69;4849173;29;20057;-65
2021/09/22 02:24:33;;;;;;;2.30;0.95;;;;;;;2.60;62.89;99023.88;4891575;29;20389;-64
2021/09/22 02:26:59;;;;;;;3.05;1.30;;;;;;;2.74;62.78;99020.44;5081506;28;20047;-65
2021/09/22 02:29:25;;;;;;;0.25;0.25;;;;;;;2.88;62.36;99024.22;5107397;28;20035;-65
2021/09/22 02:31:50;;;;;;;0.20;0.20;;;;;;;3.00;62.34;99019.22;5107830;28;20418;-64
2021/09/22 02:34:16;;;;;;;5.88;1.48;;;;;;;3.14;62.22;99023.84;5108046;28;20039;-65
2021/09/22 02:36:42;;;;;;;0.30;0.30;;;;;;;3.28;61.93;99022.25;5107699;28;20040;-65
2021/09/22 02:39:09;;;;;;;0.63;0.63;;;;;;;3.37;61.77;99025.69;5107718;28;20459;-63
2021/09/22 02:41:35;;;;;;;0.77;0.77;;;;;;;3.43;61.92;99019.56;5108812;28;20035;-64
2021/09/22 02:44:01;;;;;;;0.73;0.73;;;;;;;3.54;61.85;99025.56;5109838;28;20119;-64
2021/09/22 03:03:37;;;;;;;0.43;0.43;;;;;;;8.57;51.97;99032.06;4863112;29;20397;-65
2021/09/22 03:06:03;;;;;;;4.05;1.13;;;;;;;8.74;52.43;99037.03;5007477;28;20049;-65
2021/09/22 03:08:28;;;;;;;0.52;0.52;;;;;;;8.24;53.73;99034.88;5077118;28;20036;-64
2021/09/22 03:10:54;;;;;;;4.25;1.70;;;;;;;7.65;55.48;99033.91;5092860;28;20422;-64
2021/09/22 03:13:20;;;;;;;0.25;0.25;;;;;;;7.33;56.51;99037.25;5093828;28;20024;-64
2021/09/22 03:15:46;;;;;;;1.55;0.75;;;;;;;6.88;57.82;99039.69;5092487;28;20027;-64
2021/09/22 03:18:11;;;;;;;0.20;0.20;;;;;;;6.81;57.96;99038.81;5093699;28;20050;-64
2021/09/22 03:20:37;;;;;;;1.80;0.80;;;;;;;6.89;57.71;99044.09;5093783;28;20028;-64
2021/09/22 03:23:03;;;;;;;1.20;0.77;;;;;;;6.68;58.24;99044.22;5093720;28;20040;-65
2021/09/22 03:46:00;;;;;;;0.28;0.28;;;;;;;6.08;59.48;99058.38;4873230;29;20456;-64
2021/09/22 03:48:26;;;;;;;0.73;0.73;;;;;;;5.95;59.79;99065.41;4962312;28;20038;-65
2021/09/22 03:50:51;;;;;;;1.17;0.55;;;;;;;5.91;59.69;99068.72;5057786;28;20040;-65
2021/09/22 03:53:19;;;;;;;0.90;0.52;;;;;;;5.87;59.83;99065.53;5094788;28;20034;-64
2021/09/22 03:55:46;;;;;;;0.43;0.43;;;;;;;5.93;59.62;99069.34;5094716;28;20493;-65
2021/09/22 03:58:13;;;;;;;0.65;0.65;;;;;;;6.01;59.41;99071.09;5094349;28;20118;-64
2021/09/22 04:00:39;;;;;;;0.82;0.63;;;;;;;5.91;59.42;99066.00;5094399;28;20032;-64
2021/09/22 04:03:05;;;;;;;0.70;0.70;;;;;;;6.09;59.06;99068.25;5094737;28;20066;-65
2021/09/22 05:36:28;;;;;;;2.58;0.82;;;;;;;6.31;59.63;99097.13;4842789;29;20058;-65
2021/09/22 05:38:54;;;;;;;0.50;0.40;;;;;;;6.39;59.51;99100.72;4882665;29;20449;-65
2021/09/22 05:41:19;;;;;;;0.77;0.57;;;;;;;6.41;59.51;99095.94;4900752;29;20138;-65
2021/09/22 05:43:45;;;;;;;0.75;0.73;;;;;;;6.42;59.55;99100.31;4999479;28;20044;-65
2021/09/22 05:46:11;;;;;;;0.63;0.63;;;;;;;6.39;59.60;99093.41;5115611;28;20066;-64
2021/09/22 05:48:37;;;;;;;0.20;0.20;;;;;;;6.34;59.81;99090.41;5114853;28;20489;-65
2021/09/22 05:51:04;;;;;;;1.77;1.20;;;;;;;6.32;59.93;99090.63;5113701;28;20034;-65
2021/09/22 05:53:30;;;;;;;0.80;0.77;;;;;;;6.32;60.00;99087.06;5116916;27;20069;-64
2021/09/22 05:55:56;;;;;;;0.45;0.45;;;;;;;6.34;59.94;99092.31;5115043;27;20071;-67
2021/09/22 07:13:14;;;;;;;1.10;0.40;;;;;;;9.89;53.92;99121.09;4775125;29;20162;-68
2021/09/22 07:15:41;;;;;;;0.30;0.30;;;;;;;10.16;53.91;99116.22;4875309;28;20156;-65
2021/09/22 07:18:06;;;;;;;0.20;0.20;;;;;;;10.41;53.35;99122.78;5055994;28;20040;-68
2021/09/22 07:20:32;;;;;;;0.20;0.20;;;;;;;10.44;53.99;99117.69;5089029;28;20036;-65
2021/09/22 07:22:58;;;;;;;0.30;0.30;;;;;;;10.62;53.84;99118.78;5089023;28;20028;-65
2021/09/22 07:25:24;;;;;;;0.20;0.20;;;;;;;10.77;53.70;99116.47;5089359;28;20173;-66
2021/09/22 07:27:50;;;;;;;0.50;0.50;;;;;;;10.79;53.64;99122.59;5089611;28;20032;-67
2021/09/22 07:30:16;;;;;;;0.50;0.50;;;;;;;10.71;54.20;99122.91;5088733;28;20056;-66
2021/09/22 07:32:44;;;;;;;0.30;0.30;;;;;;;10.65;54.22;99129.31;5088836;28;20085;-65
2021/09/22 09:51:47;;;;;;;0.10;0.10;;;;;;;10.34;55.42;99199.72;6245584;22;1559169;-62
2021/09/22 09:54:22;;;;;;;0.30;0.30;;;;;;;10.26;55.50;99221.91;6286172;22;20045;-62
2021/09/22 09:56:50;;;;;;;0.20;0.20;;;;;;;10.19;55.64;99219.22;6312993;22;20211;-63
2021/09/22 09:59:18;;;;;;;0.40;0.40;;;;;;;10.09;55.66;99207.91;6309877;22;20068;-63
2021/09/22 10:01:47;;;;;;;0.32;0.32;;;;;;;10.00;56.12;99201.84;6313034;22;20015;-64
2021/09/22 10:04:17;;;;;;;0.20;0.20;;;;;;;10.18;55.38;99199.16;6313306;22;20011;-63
2021/09/22 10:06:43;;;;;;;0.25;0.25;;;;;;;10.34;55.22;99218.94;6312454;22;20029;-63
2021/09/22 10:09:10;;;;;;;0.20;0.20;;;;;;;10.37;54.83;99206.66;6310910;22;20064;-65
2021/09/22 10:11:38;;;;;;;0.20;0.20;;;;;;;10.36;54.86;99213.22;6312854;22;20011;-63
2021/09/22 10:14:06;;;;;;;0.20;0.20;;;;;;;10.43;55.02;99214.00;6312852;22;20508;-65
2021/09/22 10:16:36;;;;;;;0.20;0.20;;;;;;;10.54;54.68;99215.16;6312665;22;20007;-63
2021/09/22 10:19:04;;;;;;;0.30;0.30;;;;;;;10.51;54.64;99217.31;6313266;22;20041;-67
2021/09/22 10:21:33;;;;;;;0.32;0.32;;;;;;;10.44;54.88;99216.53;6312834;22;20473;-66
2021/09/22 10:24:01;;;;;;;0.95;0.32;;;;;;;10.32;55.28;99223.75;6313132;22;20033;-64
2021/09/22 10:26:28;;;;;;;0.43;0.43;;;;;;;10.15;55.71;99224.28;6313438;22;20089;-65
2021/09/22 10:29:00;;;;;;;0.30;0.30;;;;;;;9.95;55.93;99223.59;6312717;22;20018;-63
2021/09/22 10:31:29;;;;;;;0.43;0.32;;;;;;;9.89;56.03;99225.31;6285265;22;20011;-65
2021/09/22 10:33:59;;;;;;;0.30;0.30;;;;;;;9.89;56.02;99227.22;6308006;22;20053;-65
2021/09/22 10:36:43;;;;;;;0.20;0.20;;;;;;;9.74;56.40;99239.31;6304807;22;20014;-64
2021/09/22 10:39:39;;;;;;;0.65;0.50;;;;;;;9.63;56.49;99234.56;6278649;22;20015;-66
2021/09/22 10:42:29;;;;;;;0.20;0.20;;;;;;;9.46;56.77;99243.25;6306152;22;20077;-64
2021/09/22 10:45:22;;;;;;;0.40;0.40;;;;;;;9.47;56.64;99239.44;6306080;22;20343;-64
2021/09/22 10:48:17;;;;;;;0.20;0.20;;;;;;;9.53;56.51;99240.50;6306184;22;20045;-64
2021/09/22 10:50:44;;;;;;;0.55;0.55;;;;;;;9.47;56.24;99244.94;6305772;22;20110;-62
2021/09/22 10:53:36;;;;;;;0.20;0.20;;;;;;;9.54;56.13;99241.31;6305612;22;20007;-64
2021/09/22 10:56:08;;;;;;;0.20;0.20;;;;;;;9.54;56.15;99244.06;6278736;22;20007;-65
2021/09/22 10:58:56;;;;;;;0.20;0.20;;;;;;;9.48;55.81;99243.03;6305103;22;20030;-64
2021/09/22 11:01:40;;;;;;;0.28;0.28;;;;;;;9.44;55.92;99248.13;6302041;22;20404;-63
2021/09/22 11:04:10;;;;;;;0.30;0.30;;;;;;;9.37;56.17;99250.03;6305061;22;20011;-65
2021/09/22 11:06:45;;;;;;;0.20;0.20;;;;;;;9.25;56.28;99240.81;6305942;22;20362;-67
2021/09/22 11:09:28;;;;;;;0.40;0.30;;;;;;;9.18;56.30;99250.94;6305738;22;20090;-65
2021/09/22 11:12:00;;;;;;;0.20;0.20;;;;;;;9.10;56.47;99252.84;6305600;22;20014;-65
2021/09/22 11:14:39;;;;;;;0.20;0.20;;;;;;;9.04;56.68;99250.13;6307580;22;20320;-66
2021/09/22 11:17:04;;;;;;;0.20;0.20;;;;;;;8.99;56.43;99247.19;6307506;22;20000;-64
2021/09/22 11:19:32;;;;;;;0.20;0.20;;;;;;;9.00;56.66;99246.97;6307120;22;20014;-64
2021/09/22 11:21:59;;;;;;;0.20;0.20;;;;;;;9.00;56.49;99246.97;6306616;22;20072;-63
2021/09/22 11:24:30;;;;;;;0.20;0.20;;;;;;;8.99;56.57;99245.28;6307015;22;20451;-65
2021/09/22 11:27:08;;;;;;;0.20;0.20;;;;;;;9.03;56.61;99246.56;6307051;22;20044;-64
2021/09/22 11:29:59;;;;;;;0.30;0.30;;;;;;;9.16;56.15;99242.09;6306451;22;20336;-63
2021/09/22 11:32:36;;;;;;;0.20;0.20;;;;;;;9.26;56.03;99247.94;6307119;22;20320;-64
2021/09/22 11:35:15;;;;;;;0.20;0.20;;;;;;;9.41;55.86;99244.97;6306139;22;20014;-65
2021/09/22 11:37:53;;;;;;;0.20;0.20;;;;;;;9.50;55.66;99240.09;6307238;22;20007;-65
2021/09/22 11:40:20;;;;;;;0.60;0.60;;;;;;;9.55;55.73;99241.09;6307718;22;20007;-63
2021/09/22 11:42:53;;;;;;;0.30;0.30;;;;;;;9.56;55.84;99255.66;6307102;22;20342;-63
2021/09/22 11:45:27;;;;;;;0.68;0.38;;;;;;;9.51;55.97;99249.97;6305984;22;20459;-63
2021/09/22 11:47:53;;;;;;;1.00;1.00;;;;;;;9.46;56.27;99254.19;6304311;22;20296;-66
2021/09/22 11:50:43;;;;;;;2.28;0.60;;;;;;;9.44;56.22;99239.88;6305136;22;20023;-67
2021/09/22 11:53:14;;;;;;;0.30;0.30;;;;;;;9.43;56.05;99254.66;6306463;22;20020;-65
2021/09/22 11:55:41;;;;;;;0.30;0.30;;;;;;;9.42;56.40;99254.88;6306565;22;20010;-64
2021/09/22 11:58:10;;;;;;;0.25;0.25;;;;;;;9.32;56.63;99258.06;6278561;22;20011;-65
2021/09/22 12:00:38;;;;;;;0.40;0.40;;;;;;;9.27;56.73;99261.44;6306549;22;20010;-63
2021/09/22 12:03:08;;;;;;;0.28;0.28;;;;;;;9.27;56.77;99260.59;6307116;22;20011;-64
2021/09/22 12:05:34;;;;;;;0.85;0.68;;;;;;;9.14;57.13;99268.88;6306965;22;20443;-64
2021/09/22 12:07:59;;;;;;;0.38;0.38;;;;;;;9.09;57.23;99275.00;6307065;22;20053;-67
2021/09/22 12:10:26;;;;;;;0.43;0.43;;;;;;;9.05;57.30;99265.50;6306876;22;20526;-64
2021/09/22 12:12:57;;;;;;;0.50;0.50;;;;;;;9.00;57.58;99263.41;6307109;22;20060;-66
2021/09/22 12:15:23;;;;;;;0.52;0.40;;;;;;;8.98;57.43;99261.94;6279481;22;20011;-65
2021/09/22 12:17:50;;;;;;;0.47;0.47;;;;;;;8.91;57.46;99262.78;6307202;22;20017;-65
2021/09/22 12:20:17;;;;;;;0.50;0.30;;;;;;;8.91;57.53;99267.44;6306955;22;20011;-66
2021/09/22 12:22:45;;;;;;;2.30;0.60;;;;;;;8.93;57.80;99268.06;6306774;22;20015;-68
2021/09/22 12:25:16;;;;;;;0.20;0.20;;;;;;;8.85;57.71;99260.91;6306964;22;20011;-64
2021/09/22 12:27:48;;;;;;;0.20;0.20;;;;;;;8.84;57.82;99263.88;6306653;22;20475;-66
2021/09/22 12:30:14;;;;;;;0.95;0.80;;;;;;;8.85;57.63;99262.78;6306283;22;20007;-68
2021/09/22 12:33:01;;;;;;;0.30;0.30;;;;;;;8.84;57.63;99263.88;6306696;22;20010;-66
2021/09/22 12:35:41;;;;;;;0.65;0.65;;;;;;;8.81;57.84;99265.13;6306726;22;20015;-64
2021/09/22 12:45:13;;;;;;;1.60;0.80;;;;;;;8.70;57.90;99276.72;6269478;22;20082;-65
2021/09/22 12:51:41;;;;;;;0.20;0.20;;;;;;;8.62;58.22;99279.69;6258611;22;20031;-67
2021/09/22 12:57:28;;;;;;;0.65;0.40;;;;;;;8.59;58.14;99291.88;6274936;22;20069;-65
2021/09/22 12:59:55;;;;;;;0.43;0.30;;;;;;;8.48;58.48;99285.16;6275086;22;20015;-63
2021/09/22 13:02:23;;;;;;;0.57;0.45;;;;;;;8.34;58.70;99276.03;6274981;22;20495;-64
2021/09/22 13:04:49;;;;;;;1.23;0.32;;;;;;;8.28;58.92;99278.78;6275565;22;20089;-64
2021/09/22 13:07:24;;;;;;;0.30;0.30;;;;;;;8.22;58.91;99277.72;6275362;22;20018;-65
2021/09/22 13:10:01;;;;;;;0.20;0.20;;;;;;;8.18;59.07;99279.19;6274100;22;20011;-68
2021/09/22 13:12:31;;;;;;;0.32;0.30;;;;;;;8.20;59.01;99279.81;6274540;22;20343;-66
2021/09/22 13:14:57;;;;;;;0.45;0.45;;;;;;;8.20;58.68;99277.06;6273994;22;20114;-64
2021/09/22 13:17:23;;;;;;;0.32;0.32;;;;;;;8.20;58.78;99282.53;6274139;22;20397;-65
2021/09/22 13:19:49;;;;;;;0.20;0.20;;;;;;;8.18;58.75;99277.28;6274202;22;20012;-64
2021/09/22 13:22:15;;;;;;;0.20;0.20;;;;;;;8.16;58.90;99279.38;6273856;22;20047;-65
2021/09/22 13:24:40;;;;;;;0.20;0.20;;;;;;;8.17;58.82;99274.75;6273438;22;20034;-63
2021/09/22 13:27:06;;;;;;;0.20;0.20;;;;;;;8.14;58.75;99275.16;6270593;22;20015;-62
2021/09/22 13:29:33;;;;;;;0.20;0.20;;;;;;;8.11;58.79;99276.41;6270715;22;20386;-63
2021/09/22 13:32:03;;;;;;;0.30;0.30;;;;;;;8.04;58.94;99279.16;6270889;22;20018;-63
2021/09/22 13:34:29;;;;;;;1.10;0.40;;;;;;;8.03;59.08;99290.31;6271704;22;20019;-64
2021/09/22 13:37:01;;;;;;;0.22;0.22;;;;;;;7.97;59.06;99289.22;6271889;22;20070;-66
2021/09/22 13:39:27;;;;;;;0.47;0.47;;;;;;;7.91;59.29;99292.78;6272863;22;20035;-61
2021/09/22 13:41:54;;;;;;;0.28;0.28;;;;;;;7.89;59.11;99292.13;6270366;22;20538;-61
2021/09/22 13:44:20;;;;;;;0.20;0.20;;;;;;;7.86;59.12;99295.28;6272058;22;20022;-66
2021/09/22 13:46:49;;;;;;;0.43;0.43;;;;;;;7.84;59.14;99291.94;6245919;22;20004;-66
2021/09/22 13:49:16;;;;;;;0.20;0.20;;;;;;;7.81;59.39;99290.44;6272487;22;20004;-64
2021/09/22 13:51:46;;;;;;;0.32;0.32;;;;;;;7.77;59.32;99294.63;6271663;22;20016;-65
2021/09/22 13:54:15;;;;;;;0.30;0.30;;;;;;;7.75;59.42;99301.38;6272791;22;20018;-64
2021/09/22 13:56:42;;;;;;;0.35;0.35;;;;;;;7.72;59.53;99305.34;6273811;22;20008;-65
2021/09/22 13:59:07;;;;;;;0.22;0.22;;;;;;;7.68;59.65;99309.53;6273977;22;20022;-62
2021/09/22 14:01:34;;;;;;;0.22;0.22;;;;;;;7.64;59.69;99306.38;6274628;22;20406;-63
2021/09/22 14:04:00;;;;;;;0.30;0.30;;;;;;;7.66;59.56;99309.72;6274406;22;20066;-63
2021/09/22 14:06:26;;;;;;;0.30;0.30;;;;;;;7.68;59.31;99312.25;6274179;22;20007;-67
2021/09/22 14:08:52;;;;;;;0.25;0.20;;;;;;;7.71;59.56;99309.13;6274928;22;20050;-64
2021/09/22 14:11:18;;;;;;;2.05;0.55;;;;;;;7.73;59.44;99315.25;6276226;22;20046;-63
2021/09/22 14:13:44;;;;;;;0.10;0.10;;;;;;;7.70;59.36;99313.75;6276854;22;20015;-64
2021/09/22 14:16:09;;;;;;;0.40;0.40;;;;;;;7.66;59.48;99315.19;6277265;22;20019;-65
2021/09/22 14:18:35;;;;;;;0.43;0.43;;;;;;;7.63;59.63;99321.06;6276811;22;20008;-65
2021/09/22 14:21:01;;;;;;;0.20;0.20;;;;;;;7.61;59.68;99325.91;6276705;22;20444;-66
2021/09/22 14:23:28;;;;;;;0.32;0.32;;;;;;;7.58;59.61;99322.72;6276190;22;20079;-64
2021/09/22 14:25:55;;;;;;;0.55;0.55;;;;;;;7.56;59.70;99320.19;6276802;22;20079;-65
2021/09/22 14:28:23;;;;;;;1.55;0.63;;;;;;;7.59;59.58;99321.69;6276278;22;20034;-68
2021/09/22 14:30:49;;;;;;;0.30;0.30;;;;;;;7.65;59.48;99323.59;6277018;22;20114;-67
2021/09/22 14:33:15;;;;;;;0.47;0.47;;;;;;;7.66;59.56;99326.13;6276770;22;20038;-66
2021/09/22 14:35:43;;;;;;;0.20;0.20;;;;;;;7.65;59.62;99335.38;6276602;22;20039;-66
2021/09/22 14:38:10;;;;;;;1.67;0.70;;;;;;;7.62;59.72;99327.56;6276572;22;20030;-66
2021/09/22 14:40:40;;;;;;;0.73;0.35;;;;;;;7.65;59.65;99337.28;6276541;22;20570;-67
2021/09/22 14:43:07;;;;;;;0.40;0.40;;;;;;;7.65;59.69;99342.75;6276158;22;20395;-66
2021/09/22 14:45:33;;;;;;;1.70;0.55;;;;;;;7.66;59.62;99341.69;6276322;22;20012;-65
2021/09/22 14:47:59;;;;;;;0.30;0.30;;;;;;;7.65;59.67;99345.47;6276208;22;20011;-68
2021/09/22 14:50:26;;;;;;;0.50;0.50;;;;;;;7.61;59.70;99339.59;6249285;22;20464;-64
2021/09/22 14:52:53;;;;;;;0.20;0.20;;;;;;;7.58;59.79;99334.50;6276600;22;20015;-65
2021/09/22 14:55:19;;;;;;;1.65;0.60;;;;;;;7.56;59.64;99339.31;6276425;22;20000;-64
2021/09/22 14:57:46;;;;;;;0.47;0.47;;;;;;;7.49;59.79;99341.19;6276725;22;20012;-64
2021/09/22 15:00:18;;;;;;;0.45;0.45;;;;;;;7.48;59.78;99332.16;6275652;22;20027;-65
2021/09/22 15:02:48;;;;;;;0.22;0.22;;;;;;;7.48;59.97;99351.28;6276378;22;20016;-64
2021/09/22 15:05:35;;;;;;;0.70;0.63;;;;;;;7.44;59.92;99344.53;6276464;22;20061;-64
2021/09/22 15:08:02;;;;;;;0.50;0.45;;;;;;;7.42;60.05;99343.88;6249137;22;20012;-63
2021/09/22 15:10:27;;;;;;;0.20;0.20;;;;;;;7.44;59.70;99343.69;6275994;22;20015;-66
2021/09/22 15:12:53;;;;;;;0.30;0.30;;;;;;;7.44;59.74;99336.31;6275820;22;20117;-68
2021/09/22 15:15:21;;;;;;;0.20;0.20;;;;;;;7.45;59.65;99342.63;6277667;22;20012;-65
2021/09/22 15:17:47;;;;;;;0.63;0.40;;;;;;;7.44;59.61;99343.69;6276012;22;20014;-64
2021/09/22 15:20:13;;;;;;;0.50;0.50;;;;;;;7.43;59.39;99350.19;6274908;22;20011;-65
2021/09/22 15:22:40;;;;;;;0.10;0.10;;;;;;;7.40;59.51;99345.13;6275638;22;20090;-63
2021/09/22 15:25:07;;;;;;;0.10;0.10;;;;;;;7.41;59.31;99347.66;6276507;22;20018;-65
2021/09/22 15:27:33;;;;;;;0.20;0.20;;;;;;;7.45;59.34;99348.09;6275180;22;20007;-64
2021/09/22 15:30:16;;;;;;;0.20;0.20;;;;;;;7.48;59.13;99358.59;6274513;22;20030;-63
2021/09/22 15:32:42;;;;;;;0.20;0.20;;;;;;;7.48;59.10;99362.22;6275274;22;20317;-63
2021/09/22 15:35:10;;;;;;;0.10;0.10;;;;;;;7.50;58.94;99364.72;6275138;22;20097;-67
2021/09/22 15:37:37;;;;;;;0.25;0.25;;;;;;;7.46;59.10;99356.06;6275638;22;20008;-65
2021/09/22 15:40:06;;;;;;;0.20;0.20;;;;;;;7.45;59.13;99362.59;6275231;22;20008;-65
2021/09/22 15:42:34;;;;;;;0.75;0.75;;;;;;;7.43;59.26;99356.47;6274723;22;20355;-67
2021/09/22 15:45:00;;;;;;;0.20;0.20;;;;;;;7.44;59.11;99357.34;6274327;22;20011;-64
2021/09/22 15:47:26;;;;;;;1.65;0.43;;;;;;;7.44;59.33;99371.00;6274586;22;20452;-64
2021/09/22 15:49:52;;;;;;;0.35;0.30;;;;;;;7.44;59.07;99358.19;6274382;22;20015;-69
2021/09/22 15:52:18;;;;;;;0.30;0.30;;;;;;;7.44;59.07;99363.66;6273893;22;20090;-65
2021/09/22 15:54:44;;;;;;;0.20;0.20;;;;;;;7.47;59.01;99365.13;6274518;22;20161;-63
2021/09/22 15:57:10;;;;;;;0.15;0.15;;;;;;;7.48;58.89;99369.53;6275158;22;20007;-62
2021/09/22 15:59:37;;;;;;;0.30;0.30;;;;;;;7.49;58.83;99363.03;6272323;22;20077;-64
2021/09/22 16:02:06;;;;;;;0.20;0.20;;;;;;;7.47;58.85;99368.72;6272950;22;21237;-63
2021/09/22 16:04:33;;;;;;;0.55;0.55;;;;;;;7.47;58.80;99370.59;6246381;22;20385;-63
2021/09/22 16:07:02;;;;;;;0.20;0.20;;;;;;;7.48;58.84;99366.81;6275477;22;20011;-67
2021/09/22 16:09:27;;;;;;;0.20;0.20;;;;;;;7.50;58.81;99375.66;6273760;22;20035;-67
2021/09/22 16:11:53;;;;;;;0.25;0.25;;;;;;;7.52;58.79;99384.50;6272519;22;20069;-67
2021/09/22 16:14:19;;;;;;;0.17;0.17;;;;;;;7.51;58.78;99383.66;6274113;22;20447;-67
2021/09/22 16:16:45;;;;;;;0.30;0.30;;;;;;;7.55;58.76;99378.63;6273273;22;20031;-65
2021/09/22 16:19:11;;;;;;;0.13;0.13;;;;;;;7.59;58.59;99377.19;6274031;22;20054;-66
2021/09/22 16:21:37;;;;;;;0.10;0.10;;;;;;;7.60;58.56;99376.16;6245787;22;20016;-66
2021/09/22 16:24:04;;;;;;;0.10;0.10;;;;;;;7.60;58.61;99370.69;6269108;22;20007;-65
2021/09/22 16:26:30;;;;;;;0.95;0.73;;;;;;;7.60;58.63;99376.16;6245197;22;20015;-65
2021/09/22 16:28:56;;;;;;;1.25;0.32;;;;;;;7.66;58.53;99377.22;6270783;22;20012;-67
2021/09/22 16:31:22;;;;;;;0.30;0.30;;;;;;;7.71;58.57;99375.59;6270664;22;20369;-64
2021/09/22 16:33:48;;;;;;;0.22;0.22;;;;;;;7.74;58.33;99376.22;6245134;22;20042;-64
2021/09/22 16:36:14;;;;;;;0.30;0.30;;;;;;;7.76;58.56;99379.56;6269353;22;20375;-66
2021/09/22 16:38:41;;;;;;;0.20;0.20;;;;;;;7.77;58.49;99367.59;6270757;22;20046;-68
2021/09/22 16:41:07;;;;;;;0.30;0.30;;;;;;;7.78;58.49;99375.59;6243651;22;20355;-66
2021/09/22 16:43:33;;;;;;;0.30;0.30;;;;;;;7.79;58.50;99373.69;6272556;22;20012;-65
2021/09/22 16:46:00;;;;;;;0.20;0.20;;;;;;;7.81;58.44;99368.88;6271747;22;20325;-63
2021/09/22 16:48:26;;;;;;;0.22;0.22;;;;;;;7.84;58.38;99365.75;6272441;22;20065;-64
2021/09/22 16:50:52;;;;;;;0.30;0.30;;;;;;;7.89;58.41;99363.22;6270518;22;20053;-66
2021/09/22 16:53:19;;;;;;;0.30;0.30;;;;;;;7.94;58.47;99366.22;6271591;22;20011;-66
2021/09/22 16:55:45;;;;;;;2.08;0.57;;;;;;;7.94;58.47;99366.22;6272320;22;20462;-66
2021/09/22 16:58:11;;;;;;;0.38;0.35;;;;;;;7.93;58.64;99359.03;6272148;22;20376;-67
2021/09/22 17:00:37;;;;;;;0.30;0.30;;;;;;;7.90;58.48;99364.94;6270318;22;20003;-66
2021/09/22 17:03:04;;;;;;;0.25;0.25;;;;;;;7.87;58.69;99365.34;6272230;22;20062;-66
2021/09/22 17:05:31;;;;;;;0.85;0.63;;;;;;;7.87;58.74;99368.91;6271143;22;20398;-68
2021/09/22 17:08:00;;;;;;;0.20;0.20;;;;;;;7.85;58.77;99362.81;6244283;22;20091;-65
2021/09/22 17:10:29;;;;;;;0.40;0.40;;;;;;;7.84;58.89;99363.84;6271181;22;20359;-65
2021/09/22 17:12:55;;;;;;;1.02;0.80;;;;;;;7.82;58.75;99370.59;6272036;22;20015;-68
2021/09/22 17:15:20;;;;;;;5.30;0.50;;;;;;;7.83;58.81;99372.25;6271933;22;20431;-67
2021/09/22 17:17:47;;;;;;;0.38;0.30;;;;;;;7.83;58.92;99358.59;6271011;22;20015;-67
2021/09/22 17:20:13;;;;;;;0.52;0.52;;;;;;;7.81;58.89;99360.69;6271068;22;20018;-66
2021/09/22 17:22:39;;;;;;;0.28;0.28;;;;;;;7.77;59.03;99362.97;6272100;22;20094;-67
2021/09/22 17:25:06;;;;;;;0.77;0.40;;;;;;;7.79;58.92;99362.75;6271701;22;20012;-64
2021/09/22 17:27:32;;;;;;;0.30;0.30;;;;;;;7.82;58.91;99362.38;6272145;22;20003;-64
2021/09/22 17:29:58;;;;;;;1.15;0.45;;;;;;;7.82;58.84;99367.84;6271032;22;20064;-66
2021/09/22 17:33:05;;;;;;;0.70;0.70;;;;;;;7.80;58.99;99362.59;6271830;22;20435;-65
2021/09/22 17:42:57;;;;;;;0.25;0.25;;;;;;;7.53;59.10;99358.88;6262894;22;20022;-66
2021/09/22 17:46:03;;;;;;;0.30;0.30;;;;;;;7.49;59.11;99368.50;6276594;22;20027;-66
2021/09/22 17:49:09;;;;;;;1.05;0.45;;;;;;;7.45;59.32;99367.22;6277095;22;20391;-69
2021/09/22 17:59:01;;;;;;;0.20;0.20;;;;;;;7.34;59.27;99371.34;6271822;22;20022;-66
2021/09/22 18:01:46;;;;;;;;;;;;;;;7.31;59.14;99375.31;6276967;22;20571;-68
2021/09/22 18:14:21;;;;;;;0.75;0.75;;;;;;;7.27;59.17;99381.38;6268976;22;20079;-66
2021/09/22 18:16:46;;;;;;;0.35;0.35;;;;;;;7.31;59.16;99388.97;6277167;22;20007;-65
2021/09/22 18:19:14;;;;;;;0.30;0.30;;;;;;;7.36;59.23;99380.19;6277325;22;20416;-64
2021/09/22 18:21:42;;;;;;;0.22;0.22;;;;;;;7.43;59.02;99391.16;6276820;22;20150;-64
2021/09/22 18:24:08;;;;;;;0.20;0.20;;;;;;;7.46;58.88;99388.03;6277198;22;20035;-66
2021/09/22 18:26:35;;;;;;;0.20;0.20;;;;;;;7.47;59.02;99382.38;6277025;22;20007;-66
2021/09/22 18:29:02;;;;;;;0.28;0.28;;;;;;;7.43;59.04;99386.53;6276575;22;20074;-63
2021/09/22 18:31:36;;;;;;;0.20;0.20;;;;;;;7.40;59.18;99394.31;6276711;22;20003;-67
2021/09/22 18:34:04;;;;;;;0.20;0.20;;;;;;;7.36;59.17;99380.19;6277309;22;20007;-63
2021/09/22 18:36:31;;;;;;;0.30;0.30;;;;;;;7.34;59.27;99390.47;6276784;22;20062;-62
2021/09/22 18:38:58;;;;;;;0.25;0.25;;;;;;;7.32;59.25;99393.41;6276769;22;20035;-63
2021/09/22 18:41:25;;;;;;;0.20;0.20;;;;;;;7.26;59.49;99387.88;6276819;22;20435;-61
2021/09/22 18:43:52;;;;;;;0.20;0.20;;;;;;;7.24;59.37;99390.81;6276920;22;20007;-63
2021/09/22 18:46:18;;;;;;;0.10;0.10;;;;;;;7.23;59.42;99385.56;6276845;22;20015;-63
2021/09/22 18:48:44;;;;;;;0.30;0.30;;;;;;;7.20;59.50;99389.56;6277076;22;20008;-62
2021/09/22 18:51:10;;;;;;;0.30;0.30;;;;;;;7.19;59.63;99382.41;6276709;22;20024;-63
2021/09/22 18:53:36;;;;;;;0.90;0.47;;;;;;;7.21;59.42;99388.50;6276530;22;20121;-65
2021/09/22 18:56:03;;;;;;;0.52;0.52;;;;;;;7.22;59.59;99382.00;6276565;22;20094;-63
2021/09/22 18:58:29;;;;;;;0.28;0.28;;;;;;;7.23;59.44;99386.44;6276169;22;20501;-64
2021/09/22 19:00:55;;;;;;;0.20;0.20;;;;;;;7.25;59.55;99388.97;6276546;22;20086;-65
2021/09/22 19:03:21;;;;;;;0.40;0.40;;;;;;;7.29;59.44;99391.09;6276701;22;20041;-70
2021/09/22 19:05:47;;;;;;;0.40;0.40;;;;;;;7.33;59.52;99394.25;6276682;22;20007;-65
2021/09/22 19:08:13;;;;;;;0.35;0.35;;;;;;;7.34;59.43;99394.03;6249813;22;20517;-64
2021/09/22 19:10:40;;;;;;;0.40;0.40;;;;;;;7.39;59.26;99390.75;6276318;22;20011;-65
2021/09/22 19:13:05;;;;;;;0.20;0.20;;;;;;;7.43;59.32;99394.75;6276702;22;20065;-63
2021/09/22 19:15:32;;;;;;;0.20;0.20;;;;;;;7.46;59.16;99399.78;6276564;22;20011;-63
2021/09/22 19:17:58;;;;;;;0.30;0.30;;;;;;;7.45;59.19;99400.00;6276814;22;20011;-64
2021/09/22 19:20:23;;;;;;;0.20;0.20;;;;;;;7.41;59.33;99404.19;6276455;22;20018;-66
2021/09/22 19:22:49;;;;;;;0.20;0.20;;;;;;;7.41;59.38;99393.28;6249183;22;20015;-68
2021/09/22 19:25:16;;;;;;;0.20;0.20;;;;;;;7.37;59.52;99401.84;6276744;22;20015;-63
2021/09/22 19:27:42;;;;;;;0.20;0.20;;;;;;;7.33;59.46;99405.19;6276296;22;20000;-63
2021/09/22 19:30:09;;;;;;;0.20;0.20;;;;;;;7.25;59.81;99402.59;6275688;22;20562;-63
2021/09/22 19:32:36;;;;;;;1.00;0.40;;;;;;;7.17;59.90;99406.34;6276319;22;20008;-63
2021/09/22 19:35:02;;;;;;;0.60;0.30;;;;;;;7.14;60.05;99412.16;6276449;22;20447;-63
2021/09/22 19:37:28;;;;;;;0.30;0.30;;;;;;;7.11;60.10;99407.09;6276426;22;20012;-64
2021/09/22 19:39:53;;;;;;;0.32;0.32;;;;;;;7.06;60.18;99415.06;6276455;22;20405;-63
2021/09/22 19:42:19;;;;;;;0.20;0.20;;;;;;;7.06;60.12;99412.34;6275894;22;20746;-63
2021/09/22 20:01:56;;;;;;;0.20;0.20;;;;;;;6.84;60.14;99412.34;5887547;24;20394;-62
2021/09/22 20:04:21;;;;;;;0.20;0.20;;;;;;;6.87;60.22;99414.69;6030432;23;20035;-63
2021/09/22 20:06:47;;;;;;;0.30;0.30;;;;;;;6.86;60.12;99415.75;6108229;23;20021;-62
2021/09/22 20:09:13;;;;;;;0.30;0.30;;;;;;;6.84;60.18;99404.16;6232969;22;20012;-62
2021/09/22 20:11:40;;;;;;;0.20;0.20;;;;;;;6.87;60.16;99406.50;6276027;22;20007;-65
2021/09/22 20:14:08;;;;;;;0.70;0.52;;;;;;;6.88;60.10;99412.81;6276190;22;20095;-63
2021/09/22 20:16:34;;;;;;;0.30;0.30;;;;;;;6.87;60.30;99414.69;6276000;22;20325;-65
2021/09/22 20:19:00;;;;;;;0.20;0.20;;;;;;;6.88;60.17;99415.53;6275951;22;20058;-62
2021/09/22 20:21:26;;;;;;;0.52;0.52;;;;;;;6.86;60.25;99407.56;6275919;22;20012;-65
2021/09/22 20:30:45;;;;;;;0.30;0.30;;;;;;;6.83;60.17;99419.69;6081741;23;20348;-64